sensor_id;sensor_type;location;lat;lon;timestamp;pressure;altitude;pressure_sealevel;temperature;humidity
70690;BME280;58267;51.156;17.044;2023-06-05T00:01:03;100794.50;;;16.17;27.23
70690;BME280;58267;51.156;17.044;2023-06-05T00:03:28;100793.08;;;16.14;27.20
70690;BME280;58267;51.156;17.044;2023-06-05T00:05:53;100793.36;;;16.11;27.17
70690;BME280;58267;51.156;17.044;2023-06-05T00:08:18;100790.18;;;16.12;27.09
70690;BME280;58267;51.156;17.044;2023-06-05T00:10:45;100790.98;;;16.37;27.13
70690;BME280;58267;51.156;17.044;2023-06-05T00:13:11;100793.99;;;16.23;27.28
70690;BME280;58267;51.156;17.044;2023-06-05T00:15:36;100792.80;;;15.96;27.26
70690;BME280;58267;51.156;17.044;2023-06-05T00:18:01;100794.63;;;15.94;27.22
70690;BME280;58267;51.156;17.044;2023-06-05T00:20:26;100796.66;;;16.18;27.31
70690;BME280;58267;51.156;17.044;2023-06-05T00:22:51;100792.10;;;16.45;27.21
70690;BME280;58267;51.156;17.044;2023-06-05T00:25:17;100791.97;;;15.88;27.32
70690;BME280;58267;51.156;17.044;2023-06-05T00:27:42;100787.28;;;16.09;27.35
70690;BME280;58267;51.156;17.044;2023-06-05T00:30:08;100788.90;;;15.71;27.49
70690;BME280;58267;51.156;17.044;2023-06-05T00:32:32;100788.12;;;16.00;27.55
70690;BME280;58267;51.156;17.044;2023-06-05T00:34:58;100790.15;;;15.85;27.60
70690;BME280;58267;51.156;17.044;2023-06-05T00:37:23;100790.24;;;16.11;27.64
70690;BME280;58267;51.156;17.044;2023-06-05T00:39:48;100786.55;;;15.88;27.58
70690;BME280;58267;51.156;17.044;2023-06-05T00:42:13;100786.53;;;16.22;27.47
70690;BME280;58267;51.156;17.044;2023-06-05T00:44:39;100787.59;;;15.91;27.61
70690;BME280;58267;51.156;17.044;2023-06-05T00:47:04;100786.01;;;15.94;27.63
70690;BME280;58267;51.156;17.044;2023-06-05T00:49:30;100785.72;;;15.93;27.78
70690;BME280;58267;51.156;17.044;2023-06-05T00:51:54;100784.43;;;15.96;27.88
70690;BME280;58267;51.156;17.044;2023-06-05T00:54:20;100783.58;;;15.63;27.97
70690;BME280;58267;51.156;17.044;2023-06-05T00:56:45;100777.99;;;15.75;28.13
70690;BME280;58267;51.156;17.044;2023-06-05T00:59:10;100774.72;;;15.74;28.20
70690;BME280;58267;51.156;17.044;2023-06-05T01:01:35;100771.00;;;15.59;28.48
70690;BME280;58267;51.156;17.044;2023-06-05T01:04:00;100774.84;;;15.48;28.67
70690;BME280;58267;51.156;17.044;2023-06-05T01:06:26;100772.69;;;15.40;28.70
70690;BME280;58267;51.156;17.044;2023-06-05T01:08:51;100771.38;;;15.46;28.70
70690;BME280;58267;51.156;17.044;2023-06-05T01:11:20;100773.66;;;15.41;28.87
70690;BME280;58267;51.156;17.044;2023-06-05T01:13:46;100773.57;;;15.34;28.92
70690;BME280;58267;51.156;17.044;2023-06-05T01:16:07;100774.51;;;15.18;29.09
70690;BME280;58267;51.156;17.044;2023-06-05T01:18:32;100776.50;;;15.27;28.92
70690;BME280;58267;51.156;17.044;2023-06-05T01:21:00;100776.56;;;15.38;28.96
70690;BME280;58267;51.156;17.044;2023-06-05T01:23:22;100775.85;;;15.47;28.78
70690;BME280;58267;51.156;17.044;2023-06-05T01:25:48;100776.53;;;15.40;28.85
70690;BME280;58267;51.156;17.044;2023-06-05T01:28:16;100774.87;;;15.47;28.78
70690;BME280;58267;51.156;17.044;2023-06-05T01:30:43;100772.73;;;15.51;28.78
70690;BME280;58267;51.156;17.044;2023-06-05T01:33:07;100772.97;;;15.53;28.77
70690;BME280;58267;51.156;17.044;2023-06-05T01:35:31;100774.61;;;15.47;28.89
70690;BME280;58267;51.156;17.044;2023-06-05T01:37:56;100771.93;;;15.74;28.92
70690;BME280;58267;51.156;17.044;2023-06-05T01:40:21;100770.57;;;15.59;29.12
70690;BME280;58267;51.156;17.044;2023-06-05T01:42:47;100770.30;;;15.29;29.14
70690;BME280;58267;51.156;17.044;2023-06-05T01:45:11;100773.56;;;15.16;29.35
70690;BME280;58267;51.156;17.044;2023-06-05T01:47:37;100773.37;;;15.02;29.48
70690;BME280;58267;51.156;17.044;2023-06-05T01:50:01;100772.48;;;15.34;29.48
70690;BME280;58267;51.156;17.044;2023-06-05T01:52:26;100768.96;;;15.60;29.42
70690;BME280;58267;51.156;17.044;2023-06-05T01:54:51;100766.60;;;15.05;29.51
70690;BME280;58267;51.156;17.044;2023-06-05T01:57:16;100765.61;;;14.90;29.77
70690;BME280;58267;51.156;17.044;2023-06-05T01:59:41;100767.50;;;15.29;29.90
70690;BME280;58267;51.156;17.044;2023-06-05T02:02:07;100768.82;;;15.12;29.87
70690;BME280;58267;51.156;17.044;2023-06-05T02:04:32;100766.24;;;14.72;29.99
70690;BME280;58267;51.156;17.044;2023-06-05T02:06:57;100764.72;;;15.30;30.07
70690;BME280;58267;51.156;17.044;2023-06-05T02:09:22;100764.82;;;15.00;29.77
70690;BME280;58267;51.156;17.044;2023-06-05T02:11:48;100764.26;;;15.09;29.56
70690;BME280;58267;51.156;17.044;2023-06-05T02:14:13;100760.06;;;15.37;29.89
70690;BME280;58267;51.156;17.044;2023-06-05T02:16:39;100761.46;;;15.41;29.81
70690;BME280;58267;51.156;17.044;2023-06-05T02:19:04;100761.25;;;14.87;29.93
70690;BME280;58267;51.156;17.044;2023-06-05T02:21:29;100760.14;;;14.77;30.10
70690;BME280;58267;51.156;17.044;2023-06-05T02:23:54;100761.39;;;14.70;30.17
70690;BME280;58267;51.156;17.044;2023-06-05T02:26:20;100760.77;;;14.90;29.99
70690;BME280;58267;51.156;17.044;2023-06-05T02:28:45;100762.94;;;14.94;29.88
70690;BME280;58267;51.156;17.044;2023-06-05T02:31:10;100764.00;;;15.41;29.87
70690;BME280;58267;51.156;17.044;2023-06-05T02:33:36;100763.22;;;14.83;30.01
70690;BME280;58267;51.156;17.044;2023-06-05T02:36:02;100764.53;;;14.84;30.01
70690;BME280;58267;51.156;17.044;2023-06-05T02:38:27;100766.34;;;15.41;29.91
70690;BME280;58267;51.156;17.044;2023-06-05T02:40:52;100763.35;;;14.95;29.90
70690;BME280;58267;51.156;17.044;2023-06-05T02:43:17;100763.01;;;15.03;29.80
70690;BME280;58267;51.156;17.044;2023-06-05T02:45:42;100763.87;;;15.25;29.91
70690;BME280;58267;51.156;17.044;2023-06-05T02:48:08;100764.28;;;15.30;29.85
70690;BME280;58267;51.156;17.044;2023-06-05T02:50:33;100764.00;;;15.05;29.83
70690;BME280;58267;51.156;17.044;2023-06-05T02:52:59;100760.61;;;15.01;29.82
70690;BME280;58267;51.156;17.044;2023-06-05T02:55:24;100759.42;;;14.97;29.92
70690;BME280;58267;51.156;17.044;2023-06-05T02:57:50;100757.69;;;15.00;29.94
70690;BME280;58267;51.156;17.044;2023-06-05T03:00:15;100758.32;;;14.90;30.15
70690;BME280;58267;51.156;17.044;2023-06-05T03:02:40;100757.79;;;14.62;30.54
70690;BME280;58267;51.156;17.044;2023-06-05T03:05:06;100758.53;;;14.75;30.78
70690;BME280;58267;51.156;17.044;2023-06-05T03:07:31;100759.98;;;14.88;30.88
70690;BME280;58267;51.156;17.044;2023-06-05T03:09:56;100767.30;;;14.75;31.19
70690;BME280;58267;51.156;17.044;2023-06-05T03:12:21;100768.99;;;14.25;31.24
70690;BME280;58267;51.156;17.044;2023-06-05T03:14:47;100772.10;;;14.66;31.32
70690;BME280;58267;51.156;17.044;2023-06-05T03:17:12;100770.18;;;14.29;31.21
70690;BME280;58267;51.156;17.044;2023-06-05T03:19:37;100772.02;;;14.83;31.14
70690;BME280;58267;51.156;17.044;2023-06-05T03:22:03;100767.17;;;14.65;31.16
70690;BME280;58267;51.156;17.044;2023-06-05T03:24:28;100768.30;;;14.67;31.22
70690;BME280;58267;51.156;17.044;2023-06-05T03:26:53;100771.79;;;14.29;31.44
70690;BME280;58267;51.156;17.044;2023-06-05T03:29:18;100776.43;;;14.59;31.52
70690;BME280;58267;51.156;17.044;2023-06-05T03:31:44;100777.39;;;14.83;31.87
70690;BME280;58267;51.156;17.044;2023-06-05T03:34:10;100778.48;;;14.92;31.74
70690;BME280;58267;51.156;17.044;2023-06-05T03:36:35;100781.39;;;14.88;31.99
70690;BME280;58267;51.156;17.044;2023-06-05T03:39:00;100782.39;;;14.37;32.22
70690;BME280;58267;51.156;17.044;2023-06-05T03:41:26;100781.71;;;15.00;32.32
70690;BME280;58267;51.156;17.044;2023-06-05T03:43:51;100782.98;;;14.92;32.46
70690;BME280;58267;51.156;17.044;2023-06-05T03:46:16;100775.34;;;15.14;32.10
70690;BME280;58267;51.156;17.044;2023-06-05T03:48:41;100773.87;;;14.90;31.89
70690;BME280;58267;51.156;17.044;2023-06-05T03:51:06;100773.98;;;15.10;32.43
70690;BME280;58267;51.156;17.044;2023-06-05T03:53:32;100776.84;;;15.08;32.67
70690;BME280;58267;51.156;17.044;2023-06-05T03:55:57;100780.10;;;14.59;32.95
70690;BME280;58267;51.156;17.044;2023-06-05T03:58:22;100780.29;;;14.68;32.48
70690;BME280;58267;51.156;17.044;2023-06-05T04:00:48;100780.28;;;15.13;32.37
70690;BME280;58267;51.156;17.044;2023-06-05T04:03:13;100780.64;;;15.23;32.11
70690;BME280;58267;51.156;17.044;2023-06-05T04:05:39;100780.63;;;14.91;32.31
70690;BME280;58267;51.156;17.044;2023-06-05T04:08:03;100785.09;;;15.02;32.43
70690;BME280;58267;51.156;17.044;2023-06-05T04:10:28;100790.03;;;14.89;32.17
70690;BME280;58267;51.156;17.044;2023-06-05T04:12:54;100791.35;;;14.91;32.17
70690;BME280;58267;51.156;17.044;2023-06-05T04:15:19;100789.00;;;15.17;31.66
70690;BME280;58267;51.156;17.044;2023-06-05T04:17:44;100790.07;;;15.41;31.64
70690;BME280;58267;51.156;17.044;2023-06-05T04:20:10;100787.65;;;15.48;31.94
70690;BME280;58267;51.156;17.044;2023-06-05T04:22:35;100786.69;;;15.72;31.61
70690;BME280;58267;51.156;17.044;2023-06-05T04:25:00;100788.55;;;15.78;31.33
70690;BME280;58267;51.156;17.044;2023-06-05T04:27:25;100792.40;;;16.13;31.11
70690;BME280;58267;51.156;17.044;2023-06-05T04:29:50;100797.47;;;16.05;31.58
70690;BME280;58267;51.156;17.044;2023-06-05T04:32:16;100798.66;;;16.04;31.93
70690;BME280;58267;51.156;17.044;2023-06-05T04:34:41;100798.16;;;16.12;31.78
70690;BME280;58267;51.156;17.044;2023-06-05T04:37:07;100801.04;;;15.91;31.86
70690;BME280;58267;51.156;17.044;2023-06-05T04:39:32;100799.75;;;16.30;31.62
70690;BME280;58267;51.156;17.044;2023-06-05T04:41:57;100798.65;;;16.25;31.41
70690;BME280;58267;51.156;17.044;2023-06-05T04:44:23;100797.25;;;16.51;31.52
70690;BME280;58267;51.156;17.044;2023-06-05T04:46:48;100793.93;;;16.60;31.59
70690;BME280;58267;51.156;17.044;2023-06-05T04:49:14;100790.30;;;16.37;31.36
70690;BME280;58267;51.156;17.044;2023-06-05T04:51:39;100784.21;;;16.68;31.43
70690;BME280;58267;51.156;17.044;2023-06-05T04:54:05;100787.67;;;16.52;31.32
70690;BME280;58267;51.156;17.044;2023-06-05T04:56:30;100789.25;;;16.49;31.44
70690;BME280;58267;51.156;17.044;2023-06-05T04:58:55;100788.62;;;16.60;31.64
70690;BME280;58267;51.156;17.044;2023-06-05T05:01:21;100785.39;;;16.86;31.35
70690;BME280;58267;51.156;17.044;2023-06-05T05:03:46;100787.86;;;16.67;31.39
70690;BME280;58267;51.156;17.044;2023-06-05T05:06:11;100785.29;;;16.60;31.20
70690;BME280;58267;51.156;17.044;2023-06-05T05:08:36;100788.21;;;16.85;30.89
70690;BME280;58267;51.156;17.044;2023-06-05T05:11:01;100789.51;;;17.17;30.84
70690;BME280;58267;51.156;17.044;2023-06-05T05:13:26;100788.67;;;16.85;30.75
70690;BME280;58267;51.156;17.044;2023-06-05T05:15:52;100785.00;;;17.10;30.84
70690;BME280;58267;51.156;17.044;2023-06-05T05:18:17;100784.89;;;17.28;30.71
70690;BME280;58267;51.156;17.044;2023-06-05T05:20:43;100784.40;;;17.11;31.00
70690;BME280;58267;51.156;17.044;2023-06-05T05:23:08;100790.75;;;17.37;31.01
70690;BME280;58267;51.156;17.044;2023-06-05T05:25:33;100792.70;;;17.57;30.61
70690;BME280;58267;51.156;17.044;2023-06-05T05:27:58;100790.72;;;17.59;30.62
70690;BME280;58267;51.156;17.044;2023-06-05T05:30:24;100785.75;;;17.73;30.52
70690;BME280;58267;51.156;17.044;2023-06-05T05:32:49;100785.02;;;17.40;30.55
70690;BME280;58267;51.156;17.044;2023-06-05T05:35:15;100781.57;;;17.45;30.62
70690;BME280;58267;51.156;17.044;2023-06-05T05:37:40;100783.23;;;17.61;30.61
70690;BME280;58267;51.156;17.044;2023-06-05T05:40:06;100788.64;;;17.80;30.34
70690;BME280;58267;51.156;17.044;2023-06-05T05:42:32;100789.99;;;17.86;30.54
70690;BME280;58267;51.156;17.044;2023-06-05T05:44:56;100791.30;;;17.95;30.51
70690;BME280;58267;51.156;17.044;2023-06-05T05:47:22;100787.70;;;17.84;31.13
70690;BME280;58267;51.156;17.044;2023-06-05T05:49:47;100792.93;;;18.02;31.18
70690;BME280;58267;51.156;17.044;2023-06-05T05:52:12;100792.64;;;17.97;31.63
70690;BME280;58267;51.156;17.044;2023-06-05T05:54:38;100792.96;;;17.90;30.83
70690;BME280;58267;51.156;17.044;2023-06-05T05:57:03;100796.81;;;18.49;30.06
70690;BME280;58267;51.156;17.044;2023-06-05T05:59:28;100799.16;;;18.47;29.68
70690;BME280;58267;51.156;17.044;2023-06-05T06:01:54;100799.04;;;18.56;29.52
70690;BME280;58267;51.156;17.044;2023-06-05T06:04:19;100796.49;;;18.66;29.34
70690;BME280;58267;51.156;17.044;2023-06-05T06:06:45;100795.31;;;19.19;28.99
70690;BME280;58267;51.156;17.044;2023-06-05T06:09:10;100798.01;;;18.78;29.08
70690;BME280;58267;51.156;17.044;2023-06-05T06:11:36;100796.70;;;18.76;28.68
70690;BME280;58267;51.156;17.044;2023-06-05T06:14:01;100794.84;;;19.26;28.56
70690;BME280;58267;51.156;17.044;2023-06-05T06:16:27;100794.17;;;19.32;28.43
70690;BME280;58267;51.156;17.044;2023-06-05T06:18:52;100797.12;;;19.25;28.05
70690;BME280;58267;51.156;17.044;2023-06-05T06:21:17;100795.39;;;18.94;28.51
70690;BME280;58267;51.156;17.044;2023-06-05T06:23:42;100798.14;;;19.21;28.10
70690;BME280;58267;51.156;17.044;2023-06-05T06:26:08;100800.67;;;19.41;28.33
70690;BME280;58267;51.156;17.044;2023-06-05T06:28:33;100801.22;;;19.61;28.14
70690;BME280;58267;51.156;17.044;2023-06-05T06:30:58;100802.33;;;19.74;28.81
70690;BME280;58267;51.156;17.044;2023-06-05T06:33:24;100798.52;;;19.96;27.98
70690;BME280;58267;51.156;17.044;2023-06-05T06:35:49;100797.93;;;19.83;27.51
70690;BME280;58267;51.156;17.044;2023-06-05T06:38:14;100800.19;;;19.78;27.17
70690;BME280;58267;51.156;17.044;2023-06-05T06:40:39;100802.19;;;20.03;26.90
70690;BME280;58267;51.156;17.044;2023-06-05T06:43:04;100798.40;;;20.18;26.91
70690;BME280;58267;51.156;17.044;2023-06-05T06:45:29;100797.99;;;20.16;26.55
70690;BME280;58267;51.156;17.044;2023-06-05T06:47:55;100798.40;;;20.30;26.40
70690;BME280;58267;51.156;17.044;2023-06-05T06:50:21;100800.10;;;20.52;26.14
70690;BME280;58267;51.156;17.044;2023-06-05T06:52:47;100800.40;;;20.73;26.09
70690;BME280;58267;51.156;17.044;2023-06-05T06:55:12;100803.76;;;20.61;26.42
70690;BME280;58267;51.156;17.044;2023-06-05T06:57:37;100804.16;;;20.94;25.96
70690;BME280;58267;51.156;17.044;2023-06-05T07:00:03;100806.45;;;21.08;25.92
70690;BME280;58267;51.156;17.044;2023-06-05T07:02:27;100808.64;;;21.11;25.89
70690;BME280;58267;51.156;17.044;2023-06-05T07:04:53;100807.33;;;21.01;26.21
70690;BME280;58267;51.156;17.044;2023-06-05T07:07:18;100806.26;;;21.10;26.05
70690;BME280;58267;51.156;17.044;2023-06-05T07:09:44;100803.42;;;21.92;28.80
70690;BME280;58267;51.156;17.044;2023-06-05T07:12:09;100804.04;;;22.55;27.60
70690;BME280;58267;51.156;17.044;2023-06-05T07:14:33;100807.19;;;22.77;26.68
70690;BME280;58267;51.156;17.044;2023-06-05T07:16:59;100805.52;;;23.26;25.97
70690;BME280;58267;51.156;17.044;2023-06-05T07:19:24;100802.11;;;23.28;25.60
70690;BME280;58267;51.156;17.044;2023-06-05T07:21:49;100804.63;;;23.74;25.23
70690;BME280;58267;51.156;17.044;2023-06-05T07:24:14;100804.27;;;23.80;24.86
70690;BME280;58267;51.156;17.044;2023-06-05T07:26:40;100804.26;;;23.95;24.70
70690;BME280;58267;51.156;17.044;2023-06-05T07:29:06;100805.67;;;24.37;24.41
70690;BME280;58267;51.156;17.044;2023-06-05T07:31:31;100804.41;;;24.19;24.15
70690;BME280;58267;51.156;17.044;2023-06-05T07:33:57;100807.38;;;24.20;23.94
70690;BME280;58267;51.156;17.044;2023-06-05T07:36:22;100806.04;;;24.11;24.09
70690;BME280;58267;51.156;17.044;2023-06-05T07:38:47;100808.45;;;24.27;23.73
70690;BME280;58267;51.156;17.044;2023-06-05T07:41:13;100807.97;;;24.40;23.52
70690;BME280;58267;51.156;17.044;2023-06-05T07:43:38;100803.89;;;24.27;22.39
70690;BME280;58267;51.156;17.044;2023-06-05T07:46:03;100804.01;;;24.34;22.38
70690;BME280;58267;51.156;17.044;2023-06-05T07:48:29;100801.98;;;24.41;22.95
70690;BME280;58267;51.156;17.044;2023-06-05T07:50:54;100804.73;;;24.59;22.75
70690;BME280;58267;51.156;17.044;2023-06-05T07:53:20;100805.10;;;24.86;22.82
70690;BME280;58267;51.156;17.044;2023-06-05T07:55:45;100803.29;;;24.78;22.98
70690;BME280;58267;51.156;17.044;2023-06-05T07:58:10;100802.26;;;25.04;21.76
70690;BME280;58267;51.156;17.044;2023-06-05T08:00:36;100802.61;;;24.56;22.51
70690;BME280;58267;51.156;17.044;2023-06-05T08:03:02;100801.58;;;24.67;22.32
70690;BME280;58267;51.156;17.044;2023-06-05T08:05:26;100796.38;;;24.86;22.33
70690;BME280;58267;51.156;17.044;2023-06-05T08:07:52;100794.56;;;24.72;22.40
70690;BME280;58267;51.156;17.044;2023-06-05T08:10:18;100793.39;;;24.93;22.07
70690;BME280;58267;51.156;17.044;2023-06-05T08:12:43;100790.66;;;24.85;21.90
70690;BME280;58267;51.156;17.044;2023-06-05T08:15:09;100790.04;;;25.30;21.46
70690;BME280;58267;51.156;17.044;2023-06-05T08:17:34;100792.08;;;25.40;21.50
70690;BME280;58267;51.156;17.044;2023-06-05T08:20:00;100790.72;;;25.36;21.60
70690;BME280;58267;51.156;17.044;2023-06-05T08:22:26;100785.08;;;25.35;21.57
70690;BME280;58267;51.156;17.044;2023-06-05T08:24:51;100787.22;;;25.32;21.55
70690;BME280;58267;51.156;17.044;2023-06-05T08:27:17;100787.68;;;25.58;21.38
70690;BME280;58267;51.156;17.044;2023-06-05T08:29:41;100787.42;;;25.41;21.23
70690;BME280;58267;51.156;17.044;2023-06-05T08:32:06;100787.47;;;25.49;21.29
70690;BME280;58267;51.156;17.044;2023-06-05T08:34:32;100786.35;;;25.56;21.59
70690;BME280;58267;51.156;17.044;2023-06-05T08:36:58;100786.69;;;25.44;21.51
70690;BME280;58267;51.156;17.044;2023-06-05T08:39:23;100785.68;;;25.35;21.54
70690;BME280;58267;51.156;17.044;2023-06-05T08:41:51;100788.41;;;25.34;21.49
70690;BME280;58267;51.156;17.044;2023-06-05T08:44:14;100786.65;;;25.70;20.14
70690;BME280;58267;51.156;17.044;2023-06-05T08:46:40;100784.36;;;25.52;21.24
70690;BME280;58267;51.156;17.044;2023-06-05T08:49:10;100786.01;;;25.69;20.01
70690;BME280;58267;51.156;17.044;2023-06-05T08:51:30;100783.93;;;25.39;20.87
70690;BME280;58267;51.156;17.044;2023-06-05T08:54:00;100785.22;;;25.53;20.25
70690;BME280;58267;51.156;17.044;2023-06-05T08:56:20;100780.28;;;25.42;20.01
70690;BME280;58267;51.156;17.044;2023-06-05T08:58:47;100779.65;;;25.44;20.43
70690;BME280;58267;51.156;17.044;2023-06-05T09:01:11;100775.11;;;25.74;20.16
70690;BME280;58267;51.156;17.044;2023-06-05T09:03:36;100775.18;;;25.84;19.34
70690;BME280;58267;51.156;17.044;2023-06-05T09:06:01;100769.18;;;26.00;19.78
70690;BME280;58267;51.156;17.044;2023-06-05T09:08:30;100770.98;;;25.52;19.31
70690;BME280;58267;51.156;17.044;2023-06-05T09:10:51;100770.34;;;25.38;20.02
70690;BME280;58267;51.156;17.044;2023-06-05T09:13:17;100767.64;;;25.28;19.84
70690;BME280;58267;51.156;17.044;2023-06-05T09:15:42;100767.53;;;25.58;19.40
70690;BME280;58267;51.156;17.044;2023-06-05T09:18:09;100772.96;;;25.55;19.64
70690;BME280;58267;51.156;17.044;2023-06-05T09:20:33;100777.99;;;24.90;19.84
70690;BME280;58267;51.156;17.044;2023-06-05T09:22:58;100770.67;;;25.49;19.23
70690;BME280;58267;51.156;17.044;2023-06-05T09:25:23;100770.54;;;25.86;17.20
70690;BME280;58267;51.156;17.044;2023-06-05T09:30:14;100767.81;;;25.78;18.79
70690;BME280;58267;51.156;17.044;2023-06-05T09:32:39;100762.17;;;25.91;18.90
70690;BME280;58267;51.156;17.044;2023-06-05T09:35:04;100759.83;;;26.02;18.85
70690;BME280;58267;51.156;17.044;2023-06-05T09:37:34;100754.29;;;26.08;18.91
70690;BME280;58267;51.156;17.044;2023-06-05T09:39:54;100746.03;;;26.07;18.76
70690;BME280;58267;51.156;17.044;2023-06-05T09:42:33;100743.44;;;25.95;18.87
70690;BME280;58267;51.156;17.044;2023-06-05T09:47:11;100741.23;;;25.85;18.54
70690;BME280;58267;51.156;17.044;2023-06-05T09:52:01;100738.86;;;26.00;18.55
70690;BME280;58267;51.156;17.044;2023-06-05T09:54:27;100741.91;;;26.19;17.16
70690;BME280;58267;51.156;17.044;2023-06-05T09:56:50;100741.43;;;25.66;17.73
70690;BME280;58267;51.156;17.044;2023-06-05T09:59:20;100739.01;;;26.01;18.02
70690;BME280;58267;51.156;17.044;2023-06-05T10:01:41;100733.87;;;26.34;16.91
70690;BME280;58267;51.156;17.044;2023-06-05T10:04:08;100733.71;;;25.98;17.76
70690;BME280;58267;51.156;17.044;2023-06-05T10:06:33;100731.52;;;26.34;17.26
70690;BME280;58267;51.156;17.044;2023-06-05T10:08:57;100728.57;;;26.03;17.87
70690;BME280;58267;51.156;17.044;2023-06-05T10:11:24;100729.85;;;25.97;17.94
70690;BME280;58267;51.156;17.044;2023-06-05T10:13:48;100723.58;;;25.89;17.94
70690;BME280;58267;51.156;17.044;2023-06-05T10:16:13;100720.47;;;26.08;17.61
70690;BME280;58267;51.156;17.044;2023-06-05T10:18:38;100723.14;;;25.85;17.54
70690;BME280;58267;51.156;17.044;2023-06-05T10:21:04;100714.70;;;26.00;17.56
70690;BME280;58267;51.156;17.044;2023-06-05T10:23:29;100710.57;;;26.51;16.52
70690;BME280;58267;51.156;17.044;2023-06-05T10:25:54;100719.03;;;26.41;17.14
70690;BME280;58267;51.156;17.044;2023-06-05T10:28:31;100713.82;;;26.25;16.71
70690;BME280;58267;51.156;17.044;2023-06-05T10:33:21;100706.95;;;26.53;16.88
70690;BME280;58267;51.156;17.044;2023-06-05T10:35:43;100712.90;;;25.42;16.72
70690;BME280;58267;51.156;17.044;2023-06-05T10:38:07;100712.37;;;25.53;17.11
70690;BME280;58267;51.156;17.044;2023-06-05T10:40:25;100712.07;;;26.72;16.92
70690;BME280;58267;51.156;17.044;2023-06-05T10:42:50;100711.79;;;26.67;16.97
70690;BME280;58267;51.156;17.044;2023-06-05T10:47:48;100709.48;;;26.67;16.97
70690;BME280;58267;51.156;17.044;2023-06-05T10:52:35;100706.00;;;26.94;16.92
70690;BME280;58267;51.156;17.044;2023-06-05T10:54:57;100702.24;;;26.94;17.07
70690;BME280;58267;51.156;17.044;2023-06-05T10:57:22;100701.55;;;26.70;15.85
70690;BME280;58267;51.156;17.044;2023-06-05T11:07:15;100693.68;;;27.20;16.52
70690;BME280;58267;51.156;17.044;2023-06-05T11:09:28;100687.74;;;27.09;16.38
70690;BME280;58267;51.156;17.044;2023-06-05T11:11:57;100693.31;;;27.09;16.21
70690;BME280;58267;51.156;17.044;2023-06-05T11:14:19;100692.13;;;27.42;15.15
70690;BME280;58267;51.156;17.044;2023-06-05T11:16:44;100689.86;;;27.28;16.19
70690;BME280;58267;51.156;17.044;2023-06-05T11:28:50;100677.41;;;27.58;15.97
70690;BME280;58267;51.156;17.044;2023-06-05T11:33:40;100680.69;;;27.64;15.66
70690;BME280;58267;51.156;17.044;2023-06-05T11:36:06;100681.44;;;27.23;16.18
70690;BME280;58267;51.156;17.044;2023-06-05T11:38:32;100681.05;;;27.41;15.99
70690;BME280;58267;51.156;17.044;2023-06-05T11:40:57;100682.14;;;27.33;15.69
70690;BME280;58267;51.156;17.044;2023-06-05T11:43:23;100678.05;;;27.15;15.35
70690;BME280;58267;51.156;17.044;2023-06-05T11:45:50;100677.75;;;27.39;15.65
70690;BME280;58267;51.156;17.044;2023-06-05T11:48:14;100670.09;;;28.46;15.21
70690;BME280;58267;51.156;17.044;2023-06-05T11:50:41;100671.40;;;27.94;14.25
70690;BME280;58267;51.156;17.044;2023-06-05T11:53:04;100662.08;;;27.33;15.19
70690;BME280;58267;51.156;17.044;2023-06-05T11:55:29;100659.42;;;27.23;15.15
70690;BME280;58267;51.156;17.044;2023-06-05T11:57:54;100662.29;;;27.17;15.70
70690;BME280;58267;51.156;17.044;2023-06-05T12:00:23;100659.98;;;27.56;15.13
70690;BME280;58267;51.156;17.044;2023-06-05T12:02:46;100644.13;;;28.12;15.20
70690;BME280;58267;51.156;17.044;2023-06-05T12:05:11;100636.24;;;28.39;14.65
70690;BME280;58267;51.156;17.044;2023-06-05T12:07:36;100644.91;;;28.29;15.19
70690;BME280;58267;51.156;17.044;2023-06-05T12:10:01;100646.60;;;27.79;15.24
70690;BME280;58267;51.156;17.044;2023-06-05T12:12:26;100643.14;;;28.84;15.10
70690;BME280;58267;51.156;17.044;2023-06-05T12:14:51;100634.79;;;28.29;14.48
70690;BME280;58267;51.156;17.044;2023-06-05T12:17:16;100639.80;;;28.63;14.95
70690;BME280;58267;51.156;17.044;2023-06-05T12:19:52;100634.71;;;28.51;14.65
70690;BME280;58267;51.156;17.044;2023-06-05T12:22:12;100631.37;;;28.60;14.58
70690;BME280;58267;51.156;17.044;2023-06-05T12:24:32;100629.96;;;28.95;14.69
70690;BME280;58267;51.156;17.044;2023-06-05T12:26:58;100625.91;;;28.91;14.91
70690;BME280;58267;51.156;17.044;2023-06-05T12:29:24;100628.43;;;29.08;15.12
70690;BME280;58267;51.156;17.044;2023-06-05T12:31:48;100623.40;;;28.51;15.51
70690;BME280;58267;51.156;17.044;2023-06-05T12:34:13;100623.70;;;28.83;14.76
70690;BME280;58267;51.156;17.044;2023-06-05T12:36:40;100620.72;;;29.22;13.92
70690;BME280;58267;51.156;17.044;2023-06-05T12:39:03;100619.66;;;29.11;13.04
70690;BME280;58267;51.156;17.044;2023-06-05T12:41:28;100615.72;;;29.25;13.79
70690;BME280;58267;51.156;17.044;2023-06-05T12:43:58;100611.92;;;29.39;13.83
70690;BME280;58267;51.156;17.044;2023-06-05T12:46:19;100611.14;;;29.44;13.58
70690;BME280;58267;51.156;17.044;2023-06-05T12:48:44;100609.77;;;29.72;13.83
70690;BME280;58267;51.156;17.044;2023-06-05T12:51:09;100611.65;;;29.64;13.48
70690;BME280;58267;51.156;17.044;2023-06-05T12:53:34;100606.74;;;29.91;13.21
70690;BME280;58267;51.156;17.044;2023-06-05T12:56:00;100609.71;;;30.09;13.65
70690;BME280;58267;51.156;17.044;2023-06-05T12:58:26;100603.86;;;30.09;12.81
70690;BME280;58267;51.156;17.044;2023-06-05T13:00:52;100602.50;;;30.25;12.63
70690;BME280;58267;51.156;17.044;2023-06-05T13:03:16;100596.23;;;30.33;12.51